sensor_id;sensor_type;location;lat;lon;timestamp;P1;durP1;ratioP1;P2;durP2;ratioP2
12459;SDS011;6295;49.452;8.466;2023-04-03T04:14:57;3.80;;;2.77;;
12459;SDS011;6295;49.452;8.466;2023-04-03T04:18:59;4.27;;;2.87;;
12459;SDS011;6295;49.452;8.466;2023-04-03T04:23:01;3.30;;;2.90;;
12459;SDS011;6295;49.452;8.466;2023-04-03T04:27:03;4.63;;;2.73;;
12459;SDS011;6295;49.452;8.466;2023-04-03T04:31:11;3.43;;;2.60;;
12459;SDS011;6295;49.452;8.466;2023-04-03T04:35:16;3.93;;;2.90;;
12459;SDS011;6295;49.452;8.466;2023-04-03T04:39:19;3.87;;;2.93;;
12459;SDS011;6295;49.452;8.466;2023-04-03T04:43:21;4.07;;;3.07;;
12459;SDS011;6295;49.452;8.466;2023-04-03T04:47:25;4.13;;;2.90;;
12459;SDS011;6295;49.452;8.466;2023-04-03T04:51:29;3.30;;;2.77;;
12459;SDS011;6295;49.452;8.466;2023-04-03T04:55:31;4.80;;;3.20;;
12459;SDS011;6295;49.452;8.466;2023-04-03T04:59:33;4.93;;;3.00;;
12459;SDS011;6295;49.452;8.466;2023-04-03T05:03:37;3.20;;;2.70;;
12459;SDS011;6295;49.452;8.466;2023-04-03T05:07:39;4.97;;;3.10;;
12459;SDS011;6295;49.452;8.466;2023-04-03T05:11:41;3.27;;;2.57;;
12459;SDS011;6295;49.452;8.466;2023-04-03T05:15:44;4.63;;;3.27;;
12459;SDS011;6295;49.452;8.466;2023-04-03T05:19:47;3.57;;;3.00;;
12459;SDS011;6295;49.452;8.466;2023-04-03T05:23:49;3.93;;;2.83;;
12459;SDS011;6295;49.452;8.466;2023-04-03T05:27:52;4.67;;;2.97;;
12459;SDS011;6295;49.452;8.466;2023-04-03T05:31:54;4.47;;;3.03;;
12459;SDS011;6295;49.452;8.466;2023-04-03T05:36:01;6.57;;;3.80;;
12459;SDS011;6295;49.452;8.466;2023-04-03T05:40:06;4.63;;;3.57;;
12459;SDS011;6295;49.452;8.466;2023-04-03T05:44:09;4.20;;;3.57;;
12459;SDS011;6295;49.452;8.466;2023-04-03T05:48:11;5.53;;;3.63;;
12459;SDS011;6295;49.452;8.466;2023-04-03T05:52:19;4.37;;;3.50;;
12459;SDS011;6295;49.452;8.466;2023-04-03T05:56:24;4.10;;;3.30;;
12459;SDS011;6295;49.452;8.466;2023-04-03T06:00:26;4.07;;;3.30;;
12459;SDS011;6295;49.452;8.466;2023-04-03T06:04:29;4.43;;;3.47;;
12459;SDS011;6295;49.452;8.466;2023-04-03T06:08:32;3.80;;;3.20;;
12459;SDS011;6295;49.452;8.466;2023-04-03T06:12:36;3.87;;;3.20;;
12459;SDS011;6295;49.452;8.466;2023-04-03T06:16:39;4.73;;;3.00;;
12459;SDS011;6295;49.452;8.466;2023-04-03T06:20:43;3.37;;;3.03;;
12459;SDS011;6295;49.452;8.466;2023-04-03T06:24:50;5.43;;;3.60;;
12459;SDS011;6295;49.452;8.466;2023-04-03T06:28:53;4.37;;;3.10;;
12459;SDS011;6295;49.452;8.466;2023-04-03T06:32:56;4.87;;;3.30;;
12459;SDS011;6295;49.452;8.466;2023-04-03T06:36:59;5.40;;;3.33;;
12459;SDS011;6295;49.452;8.466;2023-04-03T06:41:02;5.50;;;3.13;;
12459;SDS011;6295;49.452;8.466;2023-04-03T06:45:06;5.13;;;3.50;;
12459;SDS011;6295;49.452;8.466;2023-04-03T06:49:10;4.33;;;3.10;;
12459;SDS011;6295;49.452;8.466;2023-04-03T06:53:12;7.30;;;3.37;;
12459;SDS011;6295;49.452;8.466;2023-04-03T06:57:18;5.37;;;3.50;;
12459;SDS011;6295;49.452;8.466;2023-04-03T07:01:22;4.67;;;3.30;;
12459;SDS011;6295;49.452;8.466;2023-04-03T07:05:32;4.90;;;3.17;;
12459;SDS011;6295;49.452;8.466;2023-04-03T07:09:37;5.07;;;3.17;;
12459;SDS011;6295;49.452;8.466;2023-04-03T07:13:41;4.27;;;3.27;;
12459;SDS011;6295;49.452;8.466;2023-04-03T07:17:44;5.77;;;3.00;;
12459;SDS011;6295;49.452;8.466;2023-04-03T07:21:46;4.00;;;2.97;;
12459;SDS011;6295;49.452;8.466;2023-04-03T07:25:49;4.43;;;3.00;;
12459;SDS011;6295;49.452;8.466;2023-04-03T07:29:56;4.90;;;2.93;;
12459;SDS011;6295;49.452;8.466;2023-04-03T07:34:01;3.13;;;2.80;;
12459;SDS011;6295;49.452;8.466;2023-04-03T07:38:03;4.30;;;2.97;;
12459;SDS011;6295;49.452;8.466;2023-04-03T07:42:05;3.97;;;2.60;;
12459;SDS011;6295;49.452;8.466;2023-04-03T07:46:09;4.00;;;3.20;;
12459;SDS011;6295;49.452;8.466;2023-04-03T07:50:12;4.40;;;2.80;;
12459;SDS011;6295;49.452;8.466;2023-04-03T07:54:14;3.23;;;2.80;;
12459;SDS011;6295;49.452;8.466;2023-04-03T07:58:17;3.97;;;2.73;;
12459;SDS011;6295;49.452;8.466;2023-04-03T08:02:21;4.00;;;2.50;;
12459;SDS011;6295;49.452;8.466;2023-04-03T08:06:23;5.93;;;2.60;;
12459;SDS011;6295;49.452;8.466;2023-04-03T08:10:26;5.50;;;2.63;;
12459;SDS011;6295;49.452;8.466;2023-04-03T08:14:32;6.63;;;2.50;;
12459;SDS011;6295;49.452;8.466;2023-04-03T08:18:37;2.83;;;2.10;;
12459;SDS011;6295;49.452;8.466;2023-04-03T08:22:40;4.80;;;2.73;;
12459;SDS011;6295;49.452;8.466;2023-04-03T08:26:42;5.00;;;3.40;;
12459;SDS011;6295;49.452;8.466;2023-04-03T08:30:44;3.47;;;2.40;;
12459;SDS011;6295;49.452;8.466;2023-04-03T08:34:48;3.97;;;2.20;;
12459;SDS011;6295;49.452;8.466;2023-04-03T08:38:51;3.70;;;1.87;;
12459;SDS011;6295;49.452;8.466;2023-04-03T08:42:59;4.87;;;2.00;;
12459;SDS011;6295;49.452;8.466;2023-04-03T08:47:18;3.20;;;1.93;;
12459;SDS011;6295;49.452;8.466;2023-04-03T08:51:26;4.33;;;1.80;;
12459;SDS011;6295;49.452;8.466;2023-04-03T08:55:31;3.73;;;1.90;;
12459;SDS011;6295;49.452;8.466;2023-04-03T08:59:36;4.03;;;1.87;;
12459;SDS011;6295;49.452;8.466;2023-04-03T09:03:40;3.07;;;1.60;;
12459;SDS011;6295;49.452;8.466;2023-04-03T09:07:45;2.93;;;1.77;;
12459;SDS011;6295;49.452;8.466;2023-04-03T09:11:54;2.07;;;1.60;;
12459;SDS011;6295;49.452;8.466;2023-04-03T09:16:14;2.60;;;1.63;;
12459;SDS011;6295;49.452;8.466;2023-04-03T09:20:24;2.33;;;1.47;;
12459;SDS011;6295;49.452;8.466;2023-04-03T09:24:37;4.57;;;1.43;;
12459;SDS011;6295;49.452;8.466;2023-04-03T09:28:39;3.43;;;1.47;;
12459;SDS011;6295;49.452;8.466;2023-04-03T09:32:45;4.53;;;1.80;;
12459;SDS011;6295;49.452;8.466;2023-04-03T09:36:51;5.00;;;1.70;;
12459;SDS011;6295;49.452;8.466;2023-04-03T09:41:05;1.87;;;1.40;;
12459;SDS011;6295;49.452;8.466;2023-04-03T09:45:23;2.50;;;1.30;;
12459;SDS011;6295;49.452;8.466;2023-04-03T09:49:33;2.77;;;1.50;;
12459;SDS011;6295;49.452;8.466;2023-04-03T09:53:37;2.10;;;1.40;;
12459;SDS011;6295;49.452;8.466;2023-04-03T09:57:46;2.53;;;1.30;;
12459;SDS011;6295;49.452;8.466;2023-04-03T10:01:58;2.93;;;1.63;;
12459;SDS011;6295;49.452;8.466;2023-04-03T10:06:04;2.17;;;1.20;;
12459;SDS011;6295;49.452;8.466;2023-04-03T10:10:22;1.87;;;1.17;;
12459;SDS011;6295;49.452;8.466;2023-04-03T10:14:28;3.50;;;1.57;;
12459;SDS011;6295;49.452;8.466;2023-04-03T10:18:34;1.50;;;1.10;;
12459;SDS011;6295;49.452;8.466;2023-04-03T10:22:47;1.93;;;1.30;;
12459;SDS011;6295;49.452;8.466;2023-04-03T10:27:04;1.47;;;1.17;;
12459;SDS011;6295;49.452;8.466;2023-04-03T10:31:14;1.57;;;1.13;;
12459;SDS011;6295;49.452;8.466;2023-04-03T10:35:25;2.07;;;1.23;;
12459;SDS011;6295;49.452;8.466;2023-04-03T10:39:38;2.50;;;1.20;;
12459;SDS011;6295;49.452;8.466;2023-04-03T10:43:50;2.13;;;1.57;;
12459;SDS011;6295;49.452;8.466;2023-04-03T10:48:09;2.27;;;1.27;;
12459;SDS011;6295;49.452;8.466;2023-04-03T10:52:17;1.83;;;1.30;;
12459;SDS011;6295;49.452;8.466;2023-04-03T10:56:25;4.27;;;1.57;;
12459;SDS011;6295;49.452;8.466;2023-04-03T11:00:37;2.30;;;1.20;;
12459;SDS011;6295;49.452;8.466;2023-04-03T11:04:46;2.63;;;1.60;;
12459;SDS011;6295;49.452;8.466;2023-04-03T11:08:55;2.63;;;1.40;;
12459;SDS011;6295;49.452;8.466;2023-04-03T11:13:06;2.10;;;1.30;;
12459;SDS011;6295;49.452;8.466;2023-04-03T11:17:18;3.50;;;1.43;;
12459;SDS011;6295;49.452;8.466;2023-04-03T11:21:31;2.67;;;1.20;;
12459;SDS011;6295;49.452;8.466;2023-04-03T11:25:37;3.00;;;1.57;;
12459;SDS011;6295;49.452;8.466;2023-04-03T11:29:41;3.53;;;1.47;;
12459;SDS011;6295;49.452;8.466;2023-04-03T11:33:49;2.10;;;1.60;;
12459;SDS011;6295;49.452;8.466;2023-04-03T11:37:58;1.67;;;1.40;;
12459;SDS011;6295;49.452;8.466;2023-04-03T11:42:13;3.23;;;1.47;;
12459;SDS011;6295;49.452;8.466;2023-04-03T11:46:20;2.87;;;1.50;;
12459;SDS011;6295;49.452;8.466;2023-04-03T11:54:53;2.00;;;1.40;;
12459;SDS011;6295;49.452;8.466;2023-04-03T12:08:24;2.73;;;1.40;;
12459;SDS011;6295;49.452;8.466;2023-04-03T12:12:30;1.63;;;1.40;;
12459;SDS011;6295;49.452;8.466;2023-04-03T12:16:33;1.97;;;1.30;;
12459;SDS011;6295;49.452;8.466;2023-04-03T12:20:53;2.50;;;1.50;;
12459;SDS011;6295;49.452;8.466;2023-04-03T12:25:00;2.13;;;1.40;;
12459;SDS011;6295;49.452;8.466;2023-04-03T12:29:42;2.03;;;1.20;;
12459;SDS011;6295;49.452;8.466;2023-04-03T12:34:00;1.80;;;1.33;;
12459;SDS011;6295;49.452;8.466;2023-04-03T12:43:01;3.13;;;1.63;;
12459;SDS011;6295;49.452;8.466;2023-04-03T12:47:14;1.53;;;1.30;;
12459;SDS011;6295;49.452;8.466;2023-04-03T12:51:19;2.40;;;1.43;;
12459;SDS011;6295;49.452;8.466;2023-04-03T12:55:23;4.03;;;1.50;;
12459;SDS011;6295;49.452;8.466;2023-04-03T12:59:25;2.13;;;1.40;;
12459;SDS011;6295;49.452;8.466;2023-04-03T13:03:29;1.63;;;1.50;;
12459;SDS011;6295;49.452;8.466;2023-04-03T13:07:33;2.13;;;1.53;;
12459;SDS011;6295;49.452;8.466;2023-04-03T13:11:39;2.27;;;1.60;;
12459;SDS011;6295;49.452;8.466;2023-04-03T13:15:44;2.40;;;1.60;;
12459;SDS011;6295;49.452;8.466;2023-04-03T13:19:50;1.80;;;1.50;;
12459;SDS011;6295;49.452;8.466;2023-04-03T13:23:56;2.10;;;1.50;;
12459;SDS011;6295;49.452;8.466;2023-04-03T13:28:00;2.53;;;1.50;;
12459;SDS011;6295;49.452;8.466;2023-04-03T13:32:05;2.30;;;1.57;;
12459;SDS011;6295;49.452;8.466;2023-04-03T13:36:10;3.27;;;1.70;;
12459;SDS011;6295;49.452;8.466;2023-04-03T13:40:20;1.77;;;1.40;;
12459;SDS011;6295;49.452;8.466;2023-04-03T13:44:26;3.43;;;1.70;;
12459;SDS011;6295;49.452;8.466;2023-04-03T13:48:37;2.20;;;1.60;;
12459;SDS011;6295;49.452;8.466;2023-04-03T13:52:47;2.57;;;1.40;;
12459;SDS011;6295;49.452;8.466;2023-04-03T13:56:52;2.83;;;1.60;;
12459;SDS011;6295;49.452;8.466;2023-04-03T14:01:00;2.63;;;1.63;;
12459;SDS011;6295;49.452;8.466;2023-04-03T14:05:08;2.10;;;1.50;;
12459;SDS011;6295;49.452;8.466;2023-04-03T14:09:12;4.80;;;2.10;;
12459;SDS011;6295;49.452;8.466;2023-04-03T14:13:15;2.07;;;1.43;;
12459;SDS011;6295;49.452;8.466;2023-04-03T14:17:21;3.13;;;1.90;;
12459;SDS011;6295;49.452;8.466;2023-04-03T14:21:25;3.47;;;1.80;;
12459;SDS011;6295;49.452;8.466;2023-04-03T14:25:29;2.33;;;1.90;;
12459;SDS011;6295;49.452;8.466;2023-04-03T14:29:31;2.87;;;1.70;;
12459;SDS011;6295;49.452;8.466;2023-04-03T14:33:33;2.63;;;1.70;;
12459;SDS011;6295;49.452;8.466;2023-04-03T14:37:36;3.70;;;1.93;;
12459;SDS011;6295;49.452;8.466;2023-04-03T14:41:40;2.30;;;1.80;;
12459;SDS011;6295;49.452;8.466;2023-04-03T14:45:43;2.63;;;1.90;;
12459;SDS011;6295;49.452;8.466;2023-04-03T14:49:46;2.00;;;1.60;;
12459;SDS011;6295;49.452;8.466;2023-04-03T14:53:48;4.13;;;1.63;;
12459;SDS011;6295;49.452;8.466;2023-04-03T14:57:53;1.77;;;1.40;;
12459;SDS011;6295;49.452;8.466;2023-04-03T15:01:56;2.40;;;1.63;;
12459;SDS011;6295;49.452;8.466;2023-04-03T15:05:59;2.00;;;1.70;;
12459;SDS011;6295;49.452;8.466;2023-04-03T15:10:05;2.47;;;1.40;;
12459;SDS011;6295;49.452;8.466;2023-04-03T15:14:17;2.37;;;1.60;;
12459;SDS011;6295;49.452;8.466;2023-04-03T15:18:20;3.73;;;2.07;;
12459;SDS011;6295;49.452;8.466;2023-04-03T15:22:24;2.47;;;1.40;;
12459;SDS011;6295;49.452;8.466;2023-04-03T15:26:27;2.23;;;1.47;;
12459;SDS011;6295;49.452;8.466;2023-04-03T15:30:31;2.60;;;1.70;;
12459;SDS011;6295;49.452;8.466;2023-04-03T15:34:36;2.13;;;1.50;;
12459;SDS011;6295;49.452;8.466;2023-04-03T15:38:38;2.30;;;1.40;;
12459;SDS011;6295;49.452;8.466;2023-04-03T15:42:40;2.37;;;1.60;;
12459;SDS011;6295;49.452;8.466;2023-04-03T15:46:44;2.53;;;1.47;;
12459;SDS011;6295;49.452;8.466;2023-04-03T15:50:46;3.63;;;1.60;;
12459;SDS011;6295;49.452;8.466;2023-04-03T15:54:48;2.93;;;1.40;;
12459;SDS011;6295;49.452;8.466;2023-04-03T15:58:51;2.40;;;1.47;;
12459;SDS011;6295;49.452;8.466;2023-04-03T16:02:57;1.87;;;1.63;;
12459;SDS011;6295;49.452;8.466;2023-04-03T16:07:04;1.93;;;1.20;;
12459;SDS011;6295;49.452;8.466;2023-04-03T16:11:06;2.03;;;1.30;;
12459;SDS011;6295;49.452;8.466;2023-04-03T16:15:08;1.70;;;1.40;;
12459;SDS011;6295;49.452;8.466;2023-04-03T16:19:13;2.10;;;1.33;;
12459;SDS011;6295;49.452;8.466;2023-04-03T16:23:15;2.67;;;1.50;;
12459;SDS011;6295;49.452;8.466;2023-04-03T16:27:17;1.50;;;1.20;;
12459;SDS011;6295;49.452;8.466;2023-04-03T16:31:20;2.47;;;1.40;;
12459;SDS011;6295;49.452;8.466;2023-04-03T16:35:24;2.40;;;1.70;;
12459;SDS011;6295;49.452;8.466;2023-04-03T16:39:26;3.87;;;2.40;;
12459;SDS011;6295;49.452;8.466;2023-04-03T16:43:29;2.73;;;1.80;;
12459;SDS011;6295;49.452;8.466;2023-04-03T16:47:31;3.30;;;2.10;;
12459;SDS011;6295;49.452;8.466;2023-04-03T16:51:34;3.07;;;1.70;;
12459;SDS011;6295;49.452;8.466;2023-04-03T16:55:36;2.03;;;1.50;;
12459;SDS011;6295;49.452;8.466;2023-04-03T16:59:40;1.40;;;1.30;;
12459;SDS011;6295;49.452;8.466;2023-04-03T17:03:42;1.63;;;1.30;;
12459;SDS011;6295;49.452;8.466;2023-04-03T17:07:46;3.03;;;1.50;;
12459;SDS011;6295;49.452;8.466;2023-04-03T17:11:50;2.23;;;1.23;;
12459;SDS011;6295;49.452;8.466;2023-04-03T17:15:53;2.87;;;1.40;;
12459;SDS011;6295;49.452;8.466;2023-04-03T17:19:55;1.37;;;1.20;;
12459;SDS011;6295;49.452;8.466;2023-04-03T17:24:00;1.37;;;1.23;;
12459;SDS011;6295;49.452;8.466;2023-04-03T17:28:04;1.83;;;1.30;;
12459;SDS011;6295;49.452;8.466;2023-04-03T17:32:07;1.43;;;1.27;;
12459;SDS011;6295;49.452;8.466;2023-04-03T17:36:09;2.20;;;1.50;;
12459;SDS011;6295;49.452;8.466;2023-04-03T17:40:12;3.20;;;1.70;;
12459;SDS011;6295;49.452;8.466;2023-04-03T17:44:18;3.77;;;1.50;;
12459;SDS011;6295;49.452;8.466;2023-04-03T17:48:23;2.27;;;1.40;;
12459;SDS011;6295;49.452;8.466;2023-04-03T17:52:26;1.87;;;1.47;;
12459;SDS011;6295;49.452;8.466;2023-04-03T17:56:32;3.20;;;1.63;;
